BIQ weather

Biarritz-Anglet-Bayonne Airport
Biarritz/Anglet/Bayonne, Aquitaine, France

Public forecast

Using degrees Celsius for public forecast. Weather courtesy of forecast.io.

METAR (pilot weather report)

Retrieved 2019/03/24 14:30 UTC (21 minutes ago):

LFBZ 241430Z AUTO 26009KT 230V290 6000 BKN003 14/12 Q1025 TEMPO BKN005

TAF (pilot weather forecast)

Retrieved 2019/03/24 12:21 UTC (2 hours ago):

TAF LFBZ 241100Z 2412/2512 30008KT CAVOK PROB40 2418/2507 BKN003 PROB30 TEMPO 2418/2420 0600 FG VV/// BECMG 2507/2509 BKN035